Time;durP1;ratioP1;P1;durP2;ratioP2;P2;SDS_P1;SDS_P2;PMS_P1;PMS_P2;Temp;Humidity;BMP_temperature;BMP_pressure;BME280_temperature;BME280_humidity;BME280_pressure;Samples;Min_cycle;Max_cycle;Signal;HPM_P1;HPM_P2
2023/03/08 00:02:17;;;;;;;25.30;19.70;;;5.60;99.90;;;;;;5025714;28;20662;-33
2023/03/08 00:04:44;;;;;;;23.30;17.60;;;5.60;99.90;;;;;;5025464;28;20630;-33
2023/03/08 00:07:14;;;;;;;21.67;17.30;;;5.60;99.90;;;;;;5025450;28;20308;-33
2023/03/08 00:09:44;;;;;;;22.87;17.70;;;5.60;99.90;;;;;;5024782;28;20307;-33
2023/03/08 00:12:18;;;;;;;23.47;18.33;;;5.60;99.90;;;;;;5025010;28;20255;-33
2023/03/08 00:14:47;;;;;;;21.47;16.73;;;5.60;99.90;;;;;;5009906;28;20219;-33
2023/03/08 00:17:15;;;;;;;22.43;17.83;;;5.60;99.90;;;;;;5025111;28;20443;-33
2023/03/08 00:19:43;;;;;;;23.27;17.63;;;5.60;99.90;;;;;;5024492;28;20328;-33
2023/03/08 00:22:10;;;;;;;25.23;18.80;;;5.60;99.90;;;;;;5026569;28;20267;-32
2023/03/08 00:24:38;;;;;;;23.43;18.53;;;5.60;99.90;;;;;;5025605;28;20225;-33
2023/03/08 00:27:08;;;;;;;24.07;18.83;;;5.60;99.90;;;;;;5024839;28;20210;-32
2023/03/08 00:29:37;;;;;;;23.70;18.40;;;5.60;99.90;;;;;;5024361;28;20240;-32
2023/03/08 00:32:07;;;;;;;23.63;18.47;;;5.50;99.90;;;;;;5024859;28;20255;-32
2023/03/08 00:34:34;;;;;;;24.00;18.43;;;5.50;99.90;;;;;;5026110;28;20231;-32
2023/03/08 00:37:01;;;;;;;23.03;18.67;;;5.50;99.90;;;;;;5025292;28;20244;-32
2023/03/08 00:39:31;;;;;;;24.80;18.30;;;5.50;99.90;;;;;;5008176;28;20271;-33
2023/03/08 00:41:59;;;;;;;25.27;18.50;;;5.50;99.90;;;;;;5025301;28;20287;-32
2023/03/08 00:44:28;;;;;;;25.00;18.77;;;5.50;99.90;;;;;;5026736;28;20304;-32
2023/03/08 00:47:00;;;;;;;26.23;19.90;;;5.60;99.90;;;;;;5026786;28;20315;-32
2023/03/08 00:49:30;;;;;;;26.30;18.57;;;5.50;99.90;;;;;;5024547;28;20193;-32
2023/03/08 00:51:59;;;;;;;25.60;18.73;;;5.60;99.90;;;;;;5026104;28;20200;-32
2023/03/08 00:54:26;;;;;;;25.57;18.40;;;5.50;99.90;;;;;;4985665;28;1155108;-33
2023/03/08 00:56:53;;;;;;;25.73;18.80;;;5.50;99.90;;;;;;5026966;28;20290;-32
2023/03/08 00:59:23;;;;;;;24.90;18.00;;;5.50;99.90;;;;;;5025361;28;20337;-33
2023/03/08 01:01:52;;;;;;;27.43;18.90;;;5.50;99.90;;;;;;5026033;28;20201;-32
2023/03/08 01:04:22;;;;;;;23.50;17.73;;;5.50;99.90;;;;;;5025820;28;20641;-32
2023/03/08 01:06:49;;;;;;;24.67;18.23;;;5.50;99.90;;;;;;5025622;28;20706;-32
2023/03/08 01:09:16;;;;;;;22.90;17.60;;;5.50;99.90;;;;;;5024779;28;20328;-32
2023/03/08 01:11:43;;;;;;;22.80;17.60;;;5.50;99.90;;;;;;5026674;28;20201;-33
2023/03/08 01:14:11;;;;;;;21.70;16.50;;;5.50;99.90;;;;;;5026817;28;20282;-32
2023/03/08 01:16:38;;;;;;;21.67;16.80;;;5.50;99.90;;;;;;5026741;28;20641;-32
2023/03/08 01:19:05;;;;;;;23.87;15.90;;;5.50;99.90;;;;;;5026897;28;20618;-32
2023/03/08 01:21:37;;;;;;;22.90;17.03;;;5.50;99.90;;;;;;5027107;28;20770;-32
2023/03/08 01:24:07;;;;;;;20.73;16.63;;;5.50;99.90;;;;;;5024803;28;20675;-32
2023/03/08 01:26:38;;;;;;;23.67;16.43;;;5.50;99.90;;;;;;5025402;28;20625;-32
2023/03/08 01:29:11;;;;;;;20.07;15.33;;;5.50;99.90;;;;;;5026383;28;20204;-31
2023/03/08 01:31:40;;;;;;;21.63;16.47;;;5.50;99.90;;;;;;5026756;28;20292;-32
2023/03/08 01:34:08;;;;;;;20.87;16.33;;;5.50;99.90;;;;;;5026409;28;20197;-32
2023/03/08 01:36:36;;;;;;;19.80;15.43;;;5.50;99.90;;;;;;5026579;28;20743;-32
2023/03/08 01:39:05;;;;;;;21.40;15.67;;;5.50;99.90;;;;;;5023900;28;20212;-32
2023/03/08 01:41:32;;;;;;;20.67;16.10;;;5.50;99.90;;;;;;5026438;28;20272;-32
2023/03/08 01:44:04;;;;;;;21.40;16.00;;;5.50;99.90;;;;;;5026153;28;20288;-32
2023/03/08 01:46:35;;;;;;;20.03;15.73;;;5.50;99.90;;;;;;5026394;28;20212;-32
2023/03/08 01:49:16;;;;;;;20.60;16.07;;;5.50;99.90;;;;;;5024555;28;20220;-32
2023/03/08 01:52:05;;;;;;;21.33;16.23;;;5.50;99.90;;;;;;5024674;28;20290;-32
2023/03/08 01:54:42;;;;;;;21.07;16.40;;;5.50;99.90;;;;;;5025274;28;20247;-32
2023/03/08 01:57:17;;;;;;;22.47;17.33;;;5.50;99.90;;;;;;5026297;28;20248;-32
2023/03/08 01:59:48;;;;;;;22.43;17.23;;;5.50;99.90;;;;;;5041863;28;20706;-32
2023/03/08 02:02:23;;;;;;;20.70;16.37;;;5.50;99.90;;;;;;5061685;28;20862;-32
2023/03/08 02:04:56;;;;;;;25.43;16.73;;;5.50;99.90;;;;;;5044121;28;20230;-32
2023/03/08 02:07:25;;;;;;;22.20;17.00;;;5.50;99.90;;;;;;5044116;28;20299;-32
2023/03/08 02:09:55;;;;;;;21.37;17.00;;;5.50;99.90;;;;;;5042850;28;20199;-32
2023/03/08 02:12:24;;;;;;;20.47;16.03;;;5.40;99.90;;;;;;5044011;28;20215;-32
2023/03/08 02:14:52;;;;;;;21.47;16.63;;;5.50;99.90;;;;;;5043479;28;20611;-32
2023/03/08 02:17:19;;;;;;;22.73;16.70;;;5.50;99.90;;;;;;5045562;28;20228;-32
2023/03/08 02:19:55;;;;;;;20.00;15.50;;;5.40;99.90;;;;;;5045343;28;20575;-31
2023/03/08 02:22:27;;;;;;;19.63;15.13;;;5.50;99.90;;;;;;5044133;28;20408;-32
2023/03/08 02:24:57;;;;;;;22.10;15.13;;;5.50;99.90;;;;;;5042918;28;20273;-32
2023/03/08 02:27:26;;;;;;;19.30;15.17;;;5.50;99.90;;;;;;5043629;28;20246;-32
2023/03/08 02:29:56;;;;;;;18.80;14.07;;;5.50;99.90;;;;;;5060159;28;20302;-32
2023/03/08 02:32:27;;;;;;;20.03;14.47;;;5.50;99.90;;;;;;5044777;28;20204;-32
2023/03/08 02:34:59;;;;;;;19.03;14.17;;;5.50;99.90;;;;;;5045486;28;20257;-32
2023/03/08 02:37:33;;;;;;;16.53;11.93;;;5.50;99.90;;;;;;5060137;28;20208;-32
2023/03/08 02:40:00;;;;;;;15.87;11.43;;;5.50;99.90;;;;;;5059358;28;20309;-32
2023/03/08 02:42:27;;;;;;;14.87;11.10;;;5.50;99.90;;;;;;5043942;28;20208;-32
2023/03/08 02:44:55;;;;;;;13.83;11.17;;;5.50;99.90;;;;;;5045273;28;20287;-32
2023/03/08 02:47:22;;;;;;;13.80;10.80;;;5.50;99.90;;;;;;5028162;28;20200;-30
2023/03/08 02:49:49;;;;;;;16.33;11.33;;;5.50;99.90;;;;;;5043648;28;20247;-30
2023/03/08 02:52:17;;;;;;;12.33;9.60;;;5.50;99.90;;;;;;5045459;28;20290;-31
2023/03/08 02:54:44;;;;;;;12.03;8.83;;;5.50;99.90;;;;;;5044657;28;20338;-31
2023/03/08 02:57:11;;;;;;;12.57;9.10;;;5.40;99.90;;;;;;5045138;28;20289;-31
2023/03/08 02:59:45;;;;;;;14.33;9.60;;;5.40;99.90;;;;;;5045591;28;20315;-31
2023/03/08 03:02:17;;;;;;;12.47;9.37;;;5.40;99.90;;;;;;5059630;28;20203;-31
2023/03/08 03:04:47;;;;;;;13.30;9.80;;;5.30;99.90;;;;;;5045495;28;20200;-31
2023/03/08 03:07:17;;;;;;;14.87;10.50;;;5.30;99.90;;;;;;5045351;28;20212;-31
2023/03/08 03:09:49;;;;;;;14.30;10.37;;;5.30;99.90;;;;;;5059236;28;20769;-30
2023/03/08 03:12:19;;;;;;;12.30;10.00;;;5.30;99.90;;;;;;5044016;28;20262;-31
2023/03/08 03:14:51;;;;;;;12.87;9.20;;;5.20;99.90;;;;;;5044534;28;20247;-31
2023/03/08 03:17:18;;;;;;;14.03;9.70;;;5.20;99.90;;;;;;5060175;28;20196;-31
2023/03/08 03:19:48;;;;;;;13.23;9.53;;;5.20;99.90;;;;;;5059340;28;20260;-31
2023/03/08 03:22:17;;;;;;;13.63;8.97;;;5.10;99.90;;;;;;5044902;28;20196;-31
2023/03/08 03:24:49;;;;;;;13.37;9.17;;;5.10;99.90;;;;;;5058712;28;20269;-31
2023/03/08 03:27:18;;;;;;;11.60;8.70;;;5.10;99.90;;;;;;5059792;28;20288;-31
2023/03/08 03:29:45;;;;;;;13.93;9.07;;;5.10;99.90;;;;;;5059713;28;20257;-31
2023/03/08 03:32:12;;;;;;;11.80;8.60;;;5.00;99.90;;;;;;5044855;28;20198;-31
2023/03/08 03:34:42;;;;;;;11.57;8.97;;;5.00;99.90;;;;;;5044529;28;20212;-31
2023/03/08 03:37:11;;;;;;;11.87;7.80;;;5.00;99.90;;;;;;5044775;28;20291;-31
2023/03/08 03:39:39;;;;;;;11.50;8.40;;;4.90;99.90;;;;;;5041954;28;20270;-31
2023/03/08 03:42:08;;;;;;;12.60;8.97;;;4.90;99.90;;;;;;5059432;28;20235;-31
2023/03/08 03:44:40;;;;;;;11.83;7.80;;;4.90;99.90;;;;;;5060028;28;20603;-31
2023/03/08 03:47:10;;;;;;;10.30;7.60;;;4.80;99.90;;;;;;5045760;28;20257;-31
2023/03/08 03:49:39;;;;;;;11.20;7.50;;;4.80;99.90;;;;;;5062965;28;20204;-31
2023/03/08 03:52:09;;;;;;;11.37;7.83;;;4.80;99.90;;;;;;5048027;28;20232;-32
2023/03/08 03:54:36;;;;;;;13.90;7.80;;;4.80;99.90;;;;;;5047255;28;20827;-31
2023/03/08 03:57:06;;;;;;;12.73;8.30;;;4.70;99.90;;;;;;5063118;28;20205;-31
2023/03/08 03:59:33;;;;;;;12.30;8.20;;;4.70;99.90;;;;;;5046028;28;20287;-32
2023/03/08 04:02:05;;;;;;;12.33;8.60;;;4.70;99.90;;;;;;5047835;28;20307;-31
2023/03/08 04:04:32;;;;;;;13.47;8.20;;;4.70;99.90;;;;;;5047984;28;20574;-31
2023/03/08 04:06:59;;;;;;;14.00;8.33;;;4.70;99.90;;;;;;5063291;28;20307;-31
2023/03/08 04:09:31;;;;;;;10.17;7.27;;;4.60;99.90;;;;;;5045850;28;20671;-31
2023/03/08 04:12:04;;;;;;;11.07;7.77;;;4.60;99.90;;;;;;5047881;28;20647;-31
2023/03/08 04:14:38;;;;;;;10.03;7.20;;;4.60;99.90;;;;;;5046415;28;20204;-31
2023/03/08 04:17:08;;;;;;;9.17;6.40;;;4.60;99.90;;;;;;5062904;28;20683;-31
2023/03/08 04:19:37;;;;;;;10.87;6.40;;;4.50;99.90;;;;;;5047485;28;20196;-31
2023/03/08 04:22:09;;;;;;;8.30;6.07;;;4.50;99.90;;;;;;5062849;28;20228;-31
2023/03/08 04:24:36;;;;;;;7.83;5.50;;;4.50;99.90;;;;;;5061607;28;20192;-31
2023/03/08 04:27:03;;;;;;;6.77;5.13;;;4.50;99.90;;;;;;5062802;28;20206;-31
2023/03/08 04:29:30;;;;;;;5.90;4.40;;;4.50;99.90;;;;;;5062179;28;20291;-31
2023/03/08 04:32:00;;;;;;;5.83;4.17;;;4.40;99.90;;;;;;5062866;28;20218;-31
2023/03/08 04:34:27;;;;;;;5.70;4.23;;;4.40;99.90;;;;;;5062376;28;20702;-31
2023/03/08 04:36:57;;;;;;;6.90;4.30;;;4.40;99.90;;;;;;5062458;28;20215;-31
2023/03/08 04:39:28;;;;;;;7.67;4.07;;;4.40;99.90;;;;;;5045652;28;20575;-31
2023/03/08 04:41:57;;;;;;;7.43;4.30;;;4.30;99.90;;;;;;5047347;28;20307;-31
2023/03/08 04:44:25;;;;;;;7.83;3.83;;;4.30;99.90;;;;;;5047237;28;20227;-32
2023/03/08 04:46:52;;;;;;;5.20;3.77;;;4.30;99.90;;;;;;5062229;28;20200;-31
2023/03/08 04:49:27;;;;;;;5.80;3.80;;;4.30;99.90;;;;;;5047786;28;20657;-31
2023/03/08 04:51:54;;;;;;;6.30;4.00;;;4.30;99.90;;;;;;5062373;28;20212;-31
2023/03/08 04:54:24;;;;;;;5.13;3.90;;;4.30;99.90;;;;;;5046574;28;20236;-31
2023/03/08 04:56:53;;;;;;;8.63;4.20;;;4.30;99.90;;;;;;5062064;28;20741;-31
2023/03/08 04:59:23;;;;;;;4.77;3.37;;;4.30;99.90;;;;;;5044811;28;20315;-31
2023/03/08 05:01:50;;;;;;;6.63;3.70;;;4.30;99.90;;;;;;5047074;28;20247;-31
2023/03/08 05:04:22;;;;;;;5.03;3.40;;;4.20;99.90;;;;;;5045306;28;20204;-31
2023/03/08 05:06:53;;;;;;;7.17;4.00;;;4.20;99.90;;;;;;5061650;28;20682;-31
2023/03/08 05:09:20;;;;;;;5.63;3.60;;;4.20;99.90;;;;;;5061481;28;20204;-32
2023/03/08 05:11:48;;;;;;;6.30;3.70;;;4.20;99.90;;;;;;5046771;28;20215;-31
2023/03/08 05:14:17;;;;;;;4.00;3.57;;;4.20;99.90;;;;;;5061453;28;20197;-31
2023/03/08 05:16:47;;;;;;;4.43;3.70;;;4.20;99.90;;;;;;5061959;28;20750;-31
2023/03/08 05:19:16;;;;;;;5.23;3.80;;;4.20;99.90;;;;;;5061135;28;20212;-31
2023/03/08 05:21:43;;;;;;;3.87;3.40;;;4.10;99.90;;;;;;5061332;28;20224;-31
2023/03/08 05:24:13;;;;;;;4.50;3.50;;;4.10;99.90;;;;;;5045346;28;20299;-31
2023/03/08 05:26:40;;;;;;;4.53;3.77;;;4.10;99.90;;;;;;5046087;28;20303;-31
2023/03/08 05:29:09;;;;;;;4.37;3.97;;;4.10;99.90;;;;;;5060509;28;20227;-34
2023/03/08 05:31:38;;;;;;;6.60;4.03;;;4.10;99.90;;;;;;5046530;28;20529;-34
2023/03/08 05:34:11;;;;;;;4.30;3.87;;;4.10;99.90;;;;;;5045571;28;20219;-34
2023/03/08 05:36:38;;;;;;;6.13;4.60;;;4.10;99.90;;;;;;5045990;28;20208;-34
2023/03/08 05:39:05;;;;;;;5.13;4.47;;;4.10;99.90;;;;;;5045604;28;20266;-31
2023/03/08 05:41:33;;;;;;;4.67;4.00;;;4.10;99.90;;;;;;5028535;28;20230;-34
2023/03/08 05:44:01;;;;;;;5.87;4.40;;;4.10;99.90;;;;;;5044775;28;20203;-34
2023/03/08 05:46:31;;;;;;;6.33;4.60;;;4.10;99.90;;;;;;5061225;28;20280;-33
2023/03/08 05:49:01;;;;;;;5.67;4.73;;;4.10;99.90;;;;;;5046097;28;20285;-34
2023/03/08 05:51:30;;;;;;;5.97;4.60;;;4.10;99.90;;;;;;5044877;28;20235;-33
2023/03/08 05:53:58;;;;;;;6.20;4.63;;;4.10;99.90;;;;;;5045196;28;20334;-34
2023/03/08 05:56:25;;;;;;;5.23;4.60;;;4.10;99.90;;;;;;5044551;28;20211;-31
2023/03/08 05:58:52;;;;;;;5.47;4.50;;;4.10;99.90;;;;;;5044248;28;20235;-32
2023/03/08 06:01:26;;;;;;;6.67;4.93;;;4.10;99.90;;;;;;5040645;28;20222;-31
2023/03/08 06:03:57;;;;;;;5.03;4.53;;;4.10;99.90;;;;;;5046389;28;20732;-32
2023/03/08 06:06:25;;;;;;;5.40;4.90;;;4.10;99.90;;;;;;5044482;28;20330;-31
2023/03/08 06:08:54;;;;;;;6.20;5.00;;;4.10;99.90;;;;;;5040898;28;20702;-32
2023/03/08 06:11:27;;;;;;;7.50;4.87;;;4.10;99.90;;;;;;5043057;28;20667;-32
2023/03/08 06:13:54;;;;;;;6.27;4.70;;;4.00;99.90;;;;;;5043116;28;20204;-32
2023/03/08 06:16:21;;;;;;;4.50;4.00;;;4.00;99.90;;;;;;5040938;28;20209;-32
2023/03/08 06:18:53;;;;;;;6.53;4.43;;;4.00;99.90;;;;;;5042990;28;20684;-32
2023/03/08 06:21:21;;;;;;;5.63;4.50;;;3.90;99.90;;;;;;5038605;28;20244;-31
2023/03/08 06:23:52;;;;;;;5.87;4.07;;;3.90;99.90;;;;;;5026712;28;20192;-32
2023/03/08 06:26:21;;;;;;;5.40;4.20;;;3.90;99.90;;;;;;5038956;28;20216;-31
2023/03/08 06:28:50;;;;;;;8.03;4.27;;;3.90;99.90;;;;;;5029479;28;20662;-32
2023/03/08 06:31:18;;;;;;;7.10;4.07;;;3.90;99.90;;;;;;5041450;28;20657;-32
2023/03/08 06:33:45;;;;;;;11.17;3.77;;;3.90;99.90;;;;;;5044621;28;20642;-32
2023/03/08 06:36:20;;;;;;;5.00;3.60;;;3.90;99.90;;;;;;5036925;28;20208;-31
2023/03/08 06:38:52;;;;;;;4.70;3.33;;;3.90;99.90;;;;;;5030299;28;20208;-32
2023/03/08 06:41:24;;;;;;;5.40;3.40;;;3.90;99.90;;;;;;5059420;28;20219;-32
2023/03/08 06:43:56;;;;;;;4.20;3.10;;;3.90;99.90;;;;;;5059392;28;20204;-32
2023/03/08 06:46:26;;;;;;;3.87;3.10;;;3.90;99.90;;;;;;5042727;28;20201;-31
2023/03/08 06:48:55;;;;;;;5.83;3.00;;;3.90;99.90;;;;;;5044398;28;20246;-31
2023/03/08 06:51:26;;;;;;;5.17;3.53;;;3.90;99.90;;;;;;5044292;28;20224;-31
2023/03/08 06:53:55;;;;;;;3.73;3.37;;;3.90;99.90;;;;;;5041854;28;20236;-31
2023/03/08 06:56:23;;;;;;;4.57;3.57;;;3.90;99.90;;;;;;5042492;28;20452;-31
2023/03/08 06:58:50;;;;;;;6.63;3.80;;;3.90;99.90;;;;;;5044224;28;20269;-31
2023/03/08 07:01:20;;;;;;;6.17;4.00;;;3.80;99.90;;;;;;5043979;28;20322;-31
2023/03/08 07:03:47;;;;;;;6.03;3.53;;;3.90;99.90;;;;;;5026329;28;20200;-32
2023/03/08 07:06:15;;;;;;;4.80;3.70;;;3.90;99.90;;;;;;5044401;28;20208;-31
2023/03/08 07:08:45;;;;;;;5.73;3.40;;;3.90;99.90;;;;;;5040248;28;20215;-31
2023/03/08 07:11:12;;;;;;;4.63;3.27;;;3.90;99.90;;;;;;5044808;28;20211;-31
2023/03/08 07:13:39;;;;;;;4.73;3.80;;;3.90;99.90;;;;;;5045524;28;20200;-31
2023/03/08 07:16:11;;;;;;;4.93;4.00;;;3.90;99.90;;;;;;5041307;28;20258;-31
2023/03/08 07:18:40;;;;;;;4.17;3.50;;;3.90;99.90;;;;;;5041134;28;20227;-31
2023/03/08 07:21:09;;;;;;;3.90;3.37;;;3.90;99.90;;;;;;5044845;28;20278;-32
2023/03/08 07:23:36;;;;;;;3.73;3.23;;;3.90;99.90;;;;;;5044895;28;20315;-31
2023/03/08 07:26:09;;;;;;;5.30;3.00;;;3.90;99.90;;;;;;5056752;28;20221;-31
2023/03/08 07:28:38;;;;;;;4.60;2.83;;;3.90;99.90;;;;;;5026457;28;20236;-31
2023/03/08 07:31:10;;;;;;;10.87;4.03;;;3.90;99.90;;;;;;5042204;28;20204;-31
2023/03/08 07:33:40;;;;;;;5.73;4.03;;;3.90;99.90;;;;;;5048413;28;20261;-31
2023/03/08 07:36:12;;;;;;;8.43;4.13;;;3.90;99.90;;;;;;5030585;28;20232;-31
2023/03/08 07:38:45;;;;;;;7.33;3.97;;;3.90;99.90;;;;;;5057943;28;20918;-31
2023/03/08 07:41:12;;;;;;;5.67;3.67;;;3.90;99.90;;;;;;5051817;28;20316;-31
2023/03/08 07:43:39;;;;;;;4.87;3.73;;;3.90;99.90;;;;;;5039011;28;20203;-32
2023/03/08 07:46:07;;;;;;;4.30;3.90;;;3.90;99.90;;;;;;5061109;28;21048;-31
2023/03/08 07:48:36;;;;;;;4.23;3.83;;;3.90;99.90;;;;;;5046302;28;20204;-31
2023/03/08 07:51:06;;;;;;;4.67;4.13;;;3.90;99.90;;;;;;5045586;28;20200;-31
2023/03/08 07:53:38;;;;;;;5.37;4.50;;;4.00;99.90;;;;;;5044154;28;20254;-31
2023/03/08 07:56:06;;;;;;;5.43;4.93;;;3.90;99.90;;;;;;5065323;28;20694;-31
2023/03/08 07:58:35;;;;;;;6.57;4.93;;;4.00;99.90;;;;;;5061739;28;20208;-30
2023/03/08 08:05:26;;;;;;;6.17;5.57;;;4.10;99.90;;;;;;5039214;28;20198;-31
2023/03/08 08:07:55;;;;;;;5.13;4.70;;;4.00;99.90;;;;;;5042502;28;20281;-31
2023/03/08 08:10:28;;;;;;;6.17;5.57;;;4.10;99.90;;;;;;5053689;28;20301;-31
2023/03/08 08:13:00;;;;;;;5.43;4.93;;;4.10;99.90;;;;;;5030630;28;20228;-31
2023/03/08 08:15:29;;;;;;;6.03;5.20;;;4.10;99.90;;;;;;5042688;28;20626;-30
2023/03/08 08:18:03;;;;;;;5.70;5.10;;;4.10;99.90;;;;;;5034364;28;20283;-32
2023/03/08 08:20:32;;;;;;;5.90;5.30;;;4.20;99.90;;;;;;5027541;28;20217;-30
2023/03/08 08:23:07;;;;;;;5.97;5.37;;;4.20;99.90;;;;;;5032565;28;20212;-31
2023/03/08 08:25:39;;;;;;;7.97;5.40;;;4.20;99.90;;;;;;5043014;28;20787;-30
2023/03/08 08:28:08;;;;;;;7.37;6.00;;;4.20;99.90;;;;;;5045565;28;20210;-31
2023/03/08 08:30:36;;;;;;;6.40;5.47;;;4.20;99.90;;;;;;5045573;28;20291;-31
2023/03/08 08:33:07;;;;;;;6.73;5.20;;;4.20;99.90;;;;;;5054147;28;20291;-31
2023/03/08 08:35:39;;;;;;;6.20;5.33;;;4.20;99.90;;;;;;5048405;28;20665;-31
2023/03/08 08:38:09;;;;;;;5.80;5.20;;;4.20;99.90;;;;;;5065790;28;20207;-30
2023/03/08 08:40:36;;;;;;;7.03;5.60;;;4.20;99.90;;;;;;5065216;28;20202;-31
2023/03/08 08:43:03;;;;;;;7.27;5.73;;;4.20;99.90;;;;;;5065139;28;20238;-30
2023/03/08 08:45:37;;;;;;;13.57;5.67;;;4.20;99.90;;;;;;5056538;28;20212;-31
2023/03/08 08:48:05;;;;;;;8.07;5.40;;;4.20;99.90;;;;;;5052149;28;20204;-30
2023/03/08 08:50:37;;;;;;;7.77;5.07;;;4.20;99.90;;;;;;5059886;28;20203;-31
2023/03/08 08:53:04;;;;;;;7.17;5.13;;;4.20;99.90;;;;;;5044763;28;20243;-31
2023/03/08 08:55:32;;;;;;;8.27;5.37;;;4.20;99.90;;;;;;5046535;28;20653;-31
2023/03/08 08:58:03;;;;;;;5.97;5.20;;;4.20;99.90;;;;;;5057442;28;20331;-31
2023/03/08 09:00:35;;;;;;;9.77;5.60;;;4.30;99.90;;;;;;5065093;28;20290;-30
2023/03/08 09:03:03;;;;;;;7.47;5.40;;;4.20;99.90;;;;;;5047690;28;20272;-30
2023/03/08 09:05:37;;;;;;;7.03;5.23;;;4.20;99.90;;;;;;5044596;28;20287;-30
2023/03/08 09:08:07;;;;;;;6.70;5.03;;;4.20;99.90;;;;;;5030497;28;20300;-30
2023/03/08 09:10:41;;;;;;;9.77;5.63;;;4.30;99.90;;;;;;5035552;28;20283;-30
2023/03/08 09:13:13;;;;;;;10.20;5.30;;;4.20;99.90;;;;;;5039516;28;20232;-31
2023/03/08 09:15:43;;;;;;;11.00;5.50;;;4.30;99.90;;;;;;5041906;28;20238;-30
2023/03/08 09:18:11;;;;;;;9.87;5.77;;;4.30;99.90;;;;;;5044517;28;20300;-30
2023/03/08 09:20:38;;;;;;;8.13;5.20;;;4.30;99.90;;;;;;5044206;28;20196;-30
2023/03/08 09:23:08;;;;;;;8.57;5.90;;;4.30;99.90;;;;;;5045269;28;20559;-31
2023/03/08 09:25:38;;;;;;;7.50;5.17;;;4.30;99.90;;;;;;5043030;28;20212;-30
2023/03/08 09:28:10;;;;;;;7.10;5.53;;;4.30;99.90;;;;;;5037933;28;20611;-30
2023/03/08 09:30:38;;;;;;;5.70;5.13;;;4.40;99.90;;;;;;5042253;28;20720;-30
2023/03/08 09:33:08;;;;;;;5.83;5.17;;;4.40;99.90;;;;;;5057993;28;21014;-30
2023/03/08 09:35:35;;;;;;;6.20;5.40;;;4.50;99.90;;;;;;5047483;28;20295;-30
2023/03/08 09:38:03;;;;;;;8.40;5.50;;;4.50;99.90;;;;;;5055407;28;20311;-31
2023/03/08 09:40:41;;;;;;;8.40;5.60;;;4.50;99.90;;;;;;5044427;28;20219;-30
2023/03/08 09:43:22;;;;;;;6.57;5.70;;;4.50;99.90;;;;;;5040508;28;20262;-31
2023/03/08 09:45:53;;;;;;;5.93;5.33;;;4.60;99.90;;;;;;5040487;28;20216;-30
2023/03/08 09:48:30;;;;;;;5.40;4.90;;;4.60;99.90;;;;;;5043452;28;20324;-30
2023/03/08 09:51:03;;;;;;;7.33;5.97;;;4.60;99.90;;;;;;5043360;28;20236;-30
2023/03/08 09:53:49;;;;;;;6.03;5.37;;;4.60;99.90;;;;;;5035383;28;20304;-31
2023/03/08 09:56:34;;;;;;;6.50;5.73;;;4.60;99.90;;;;;;5027780;28;20208;-31
2023/03/08 09:59:10;;;;;;;7.20;6.20;;;4.70;99.90;;;;;;5049221;28;20290;-31
2023/03/08 10:01:46;;;;;;;7.50;6.33;;;4.70;99.90;;;;;;5040029;28;20912;-30
2023/03/08 10:04:49;;;;;;;9.43;6.53;;;4.70;99.90;;;;;;5046340;28;20247;-31
2023/03/08 10:08:16;;;;;;;8.37;6.43;;;4.70;99.90;;;;;;5028655;28;20216;-30
2023/03/08 10:11:06;;;;;;;9.83;6.97;;;4.80;99.90;;;;;;5045681;28;20222;-30
2023/03/08 10:13:34;;;;;;;8.20;6.43;;;4.80;99.90;;;;;;5045104;28;20230;-30
2023/03/08 10:16:29;;;;;;;9.60;7.03;;;4.80;99.90;;;;;;5053383;28;20208;-31
2023/03/08 10:19:17;;;;;;;7.87;7.07;;;4.80;99.90;;;;;;5037996;28;20343;-30
2023/03/08 10:21:45;;;;;;;10.17;7.80;;;4.80;99.90;;;;;;5039712;28;20219;-30
2023/03/08 10:24:15;;;;;;;8.30;7.50;;;4.80;99.90;;;;;;5044425;28;20770;-30
2023/03/08 10:26:46;;;;;;;8.73;7.30;;;4.80;99.90;;;;;;5042620;28;20262;-30
2023/03/08 10:29:15;;;;;;;8.20;7.27;;;4.90;99.90;;;;;;5038910;28;20242;-30
2023/03/08 10:31:45;;;;;;;7.80;7.00;;;4.90;99.90;;;;;;5041067;28;20329;-30
2023/03/08 10:34:23;;;;;;;8.77;7.70;;;4.90;99.90;;;;;;5048401;28;20204;-31
2023/03/08 10:36:57;;;;;;;7.80;7.00;;;5.00;99.90;;;;;;5032403;28;20266;-30
2023/03/08 10:39:29;;;;;;;7.83;7.03;;;5.00;99.90;;;;;;5041620;28;20597;-30
2023/03/08 10:42:05;;;;;;;7.97;7.13;;;5.00;99.90;;;;;;5037390;28;20699;-30
2023/03/08 10:44:41;;;;;;;10.23;8.00;;;5.10;99.90;;;;;;5035789;28;20716;-30
2023/03/08 10:47:17;;;;;;;8.43;7.60;;;5.10;99.90;;;;;;5059475;28;20636;-30
2023/03/08 10:49:47;;;;;;;9.90;8.20;;;5.20;99.90;;;;;;5054228;28;20195;-30
2023/03/08 10:52:28;;;;;;;11.10;8.97;;;5.20;99.90;;;;;;5040906;28;20289;-30
2023/03/08 10:55:04;;;;;;;10.53;8.67;;;5.20;99.90;;;;;;5034020;28;20236;-30
2023/03/08 10:57:34;;;;;;;9.57;8.57;;;5.20;99.90;;;;;;5047566;28;20207;-30
2023/03/08 11:00:34;;;;;;;10.60;9.33;;;5.20;99.90;;;;;;5031051;28;20289;-30
2023/03/08 11:03:22;;;;;;;11.57;9.10;;;5.20;99.90;;;;;;5042005;28;20275;-30
2023/03/08 11:06:02;;;;;;;12.77;9.57;;;5.20;99.90;;;;;;5039480;28;20207;-30
2023/03/08 11:08:36;;;;;;;15.97;9.90;;;5.30;99.90;;;;;;5038078;28;20200;-30
2023/03/08 11:11:05;;;;;;;14.37;10.67;;;5.30;99.90;;;;;;5046949;28;20207;-31
2023/03/08 11:13:37;;;;;;;11.80;10.20;;;5.30;99.90;;;;;;5056391;28;20211;-32
2023/03/08 11:16:24;;;;;;;12.53;10.20;;;5.30;99.90;;;;;;5051144;28;20291;-30
2023/03/08 11:19:01;;;;;;;13.20;11.20;;;5.30;99.90;;;;;;5049612;28;20295;-30
2023/03/08 11:21:37;;;;;;;17.93;12.27;;;5.30;99.90;;;;;;5045972;28;20204;-30
2023/03/08 11:24:25;;;;;;;13.17;11.50;;;5.40;99.90;;;;;;5046674;28;20606;-30
2023/03/08 11:27:01;;;;;;;13.03;11.73;;;5.40;99.90;;;;;;5031391;28;20664;-30
2023/03/08 11:29:30;;;;;;;13.13;11.73;;;5.40;99.90;;;;;;5043370;28;20207;-30
2023/03/08 11:32:19;;;;;;;12.07;10.83;;;5.40;99.90;;;;;;5035168;28;20205;-30
2023/03/08 11:35:03;;;;;;;14.00;12.40;;;5.40;99.90;;;;;;5055332;28;20302;-30
2023/03/08 11:38:05;;;;;;;12.33;11.03;;;5.40;99.90;;;;;;5041648;28;20204;-30
2023/03/08 11:40:58;;;;;;;13.47;11.33;;;5.50;99.90;;;;;;5041299;28;20760;-30
2023/03/08 11:43:55;;;;;;;15.13;12.63;;;5.50;99.90;;;;;;5044881;28;20624;-30
2023/03/08 11:46:35;;;;;;;13.87;12.47;;;5.50;99.90;;;;;;5047627;28;20207;-30
2023/03/08 11:49:33;;;;;;;14.00;11.70;;;5.50;99.90;;;;;;5038339;28;20211;-32
2023/03/08 11:52:09;;;;;;;14.07;12.47;;;5.60;99.90;;;;;;5042000;28;20746;-30
2023/03/08 11:54:47;;;;;;;13.50;11.57;;;5.50;99.90;;;;;;5041429;28;20242;-31
2023/03/08 11:57:16;;;;;;;13.33;11.97;;;5.60;99.90;;;;;;5043790;28;20550;-30
2023/03/08 11:59:59;;;;;;;13.40;12.03;;;5.60;99.90;;;;;;5051774;28;20299;-31
2023/03/08 12:02:33;;;;;;;12.67;11.37;;;5.60;99.90;;;;;;5041708;28;20212;-30
2023/03/08 12:05:19;;;;;;;12.57;11.27;;;5.60;99.90;;;;;;5041296;28;20245;-30
2023/03/08 12:08:01;;;;;;;12.17;10.77;;;5.60;99.90;;;;;;5040388;28;20196;-31
2023/03/08 12:10:55;;;;;;;10.97;9.87;;;5.60;99.90;;;;;;5025704;28;20205;-31
2023/03/08 12:13:40;;;;;;;13.33;10.87;;;5.60;99.90;;;;;;5031976;28;20224;-30
2023/03/08 12:16:10;;;;;;;11.93;10.67;;;5.60;99.90;;;;;;5047155;28;20227;-31
2023/03/08 12:18:58;;;;;;;12.63;11.40;;;5.60;99.90;;;;;;5056004;28;20222;-31
2023/03/08 12:21:53;;;;;;;13.60;11.67;;;5.70;99.90;;;;;;5058985;28;20270;-31
2023/03/08 12:24:39;;;;;;;13.50;11.97;;;5.60;99.90;;;;;;5042491;28;20216;-30
2023/03/08 12:27:12;;;;;;;13.03;11.63;;;5.60;99.90;;;;;;5034789;28;20733;-30
2023/03/08 12:30:05;;;;;;;13.20;11.90;;;5.70;99.90;;;;;;5032916;28;20879;-32
2023/03/08 12:32:40;;;;;;;12.27;10.97;;;5.70;99.90;;;;;;5039816;28;20668;-31
2023/03/08 12:35:34;;;;;;;12.20;10.93;;;5.70;99.90;;;;;;5048813;28;20199;-31
2023/03/08 12:38:18;;;;;;;13.03;11.50;;;5.70;99.90;;;;;;5047049;28;20199;-30
2023/03/08 12:40:50;;;;;;;13.27;11.10;;;5.70;99.90;;;;;;5045871;28;20238;-31
2023/03/08 12:43:21;;;;;;;13.10;11.70;;;5.70;99.90;;;;;;5043541;28;20258;-31
2023/03/08 12:46:04;;;;;;;12.83;11.37;;;5.70;99.90;;;;;;5045873;28;20208;-31
2023/03/08 12:48:35;;;;;;;14.73;11.87;;;5.70;99.90;;;;;;5052737;28;20200;-31
2023/03/08 12:51:11;;;;;;;16.83;11.63;;;5.70;99.90;;;;;;5052848;28;20196;-31
2023/03/08 12:53:54;;;;;;;12.77;11.13;;;5.70;99.90;;;;;;5051954;28;20235;-31
2023/03/08 12:56:34;;;;;;;13.83;11.60;;;5.70;99.90;;;;;;5033659;28;20253;-31
2023/03/08 12:59:23;;;;;;;13.23;11.80;;;5.70;99.90;;;;;;5038075;28;20319;-31
2023/03/08 13:02:00;;;;;;;12.00;10.80;;;5.70;99.90;;;;;;5036140;28;20666;-31
2023/03/08 13:04:35;;;;;;;12.73;11.00;;;5.80;99.90;;;;;;5044529;28;20607;-31
2023/03/08 13:07:25;;;;;;;13.93;12.37;;;5.80;99.90;;;;;;5057732;28;20216;-31
2023/03/08 13:10:17;;;;;;;13.77;11.97;;;5.80;99.90;;;;;;5044080;28;20207;-31
2023/03/08 13:12:47;;;;;;;16.97;12.43;;;5.90;99.90;;;;;;5040659;28;20204;-31
2023/03/08 13:15:16;;;;;;;16.97;13.23;;;5.90;99.90;;;;;;5061575;28;20753;-31
2023/03/08 13:18:07;;;;;;;12.70;11.37;;;5.90;99.90;;;;;;5053400;28;20259;-31
2023/03/08 13:20:45;;;;;;;13.37;11.97;;;6.00;99.90;;;;;;5041712;28;20211;-31